Yuho Maru No.12 — JD4120 — position and weather

sailwx.info

Track history (hours):
 
Tides and Currents Weather Stations Pressure Air Temp Water Temp Dewpoint Dewpoint Depression Visibility Wind Speed Wind Dir Waves Ship Positions

Yuho Maru No.12

Last reported at 2018-Jun-21 06:26 UTC. Time now 2018-Jun-21 06:48 UTC.
Position N 34°44' E 134°32'.

Length 65 m; draft 4.4 m.

Type: Tanker. MMSI: 431009043.

Date/timePositionNaut miles runAvg speedWind from/ knotsBaromVisibWave heightAir tempDewpointWater temp
2018-Jun-21 06:26N 34°44' E 134°32'4 0.2
2018-Jun-20 10:47N 34°44' E 134°37'411.4
2018-Jun-20 10:24N 34°42' E 134°42'511.9
2018-Jun-20 10:00N 34°40' E 134°47'611.2
2018-Jun-20 09:30N 34°38' E 134°53'711.2
2018-Jun-20 08:54N 34°37' E 135°01'410.8
2018-Jun-20 08:30N 34°36' E 135°06'612.1
2018-Jun-20 08:00N 34°37' E 135°13'4 8.8
2018-Jun-20 07:30N 34°41' E 135°15'1 2.4
2018-Jun-20 06:56N 34°42' E 135°16'0 0.0
2018-Jun-20 06:26N 34°42' E 135°16'1 1.2
2018-Jun-20 06:00N 34°42' E 135°15'3 5.5
2018-Jun-20 05:30N 34°39' E 135°16'3 5.5
2018-Jun-20 05:00N 34°38' E 135°19'3 6.5
2018-Jun-20 04:30N 34°40' E 135°23'2 4.2
2018-Jun-20 04:00N 34°40' E 135°25'0 0.0
2018-Jun-20 03:29N 34°40' E 135°25'0 0.0
2018-Jun-20 03:01N 34°40' E 135°25'0 0.0
2018-Jun-20 02:30N 34°40' E 135°25'0 0.0
2018-Jun-20 02:00N 34°40' E 135°25'0 0.0
2018-Jun-20 01:26N 34°40' E 135°25'0 0.0
2018-Jun-20 01:01N 34°40' E 135°25'1 1.3
2018-Jun-20 00:31N 34°40' E 135°25'5 9.6
2018-Jun-20 00:00N 34°38' E 135°19'611.5
2018-Jun-19 23:30N 34°35' E 135°13'612.1
2018-Jun-19 23:00N 34°34' E 135°06'713.1
2018-Jun-19 22:28N 34°36' E 134°58'713.8
2018-Jun-19 22:00N 34°33' E 134°51'812.3
2018-Jun-19 21:21N 34°30' E 134°42'412.0
2018-Jun-19 21:00N 34°29' E 134°37'  
2018-Jun-15 05:09N 34°42' E 134°29'210.9
2018-Jun-15 04:56N 34°43' E 134°31'0 0.0
2018-Jun-13 03:10N 34°43' E 134°31'311.5
2018-Jun-13 02:55N 34°44' E 134°34'0 0.1
2018-Jun-12 22:34N 34°45' E 134°34'0 0.9
2018-Jun-12 22:30N 34°45' E 134°34'0 0.1
2018-Jun-12 21:59N 34°45' E 134°34'0 0.0
2018-Jun-12 21:29N 34°45' E 134°34'0 0.0
2018-Jun-12 20:59N 34°45' E 134°34'0 0.0
2018-Jun-12 20:20N 34°45' E 134°34'0 0.0
2018-Jun-12 19:59N 34°45' E 134°34'0 0.0
2018-Jun-12 19:29N 34°45' E 134°34'0 0.0
2018-Jun-12 18:56N 34°45' E 134°34'0 0.0
2018-Jun-12 18:14N 34°45' E 134°34'0 0.0
2018-Jun-12 17:56N 34°45' E 134°34'0 0.0
2018-Jun-12 14:44N 34°45' E 134°34'0 0.0
2018-Jun-12 08:17N 34°45' E 134°34'0 0.0
2018-Jun-12 07:59N 34°45' E 134°34'0 0.0
2018-Jun-12 07:29N 34°45' E 134°34'0 0.0
2018-Jun-12 06:53N 34°45' E 134°34'0 0.0
2018-Jun-12 06:29N 34°45' E 134°34'0 0.0
2018-Jun-12 05:59N 34°45' E 134°34'0 0.0
2018-Jun-12 05:29N 34°45' E 134°34'0 0.0
2018-Jun-12 04:59N 34°45' E 134°34'0 0.0
2018-Jun-12 04:14N 34°45' E 134°34'0 0.0
2018-Jun-12 03:59N 34°45' E 134°34'0 0.0
2018-Jun-12 03:29N 34°45' E 134°34'0 0.0
2018-Jun-12 02:59N 34°45' E 134°34'0 0.0
2018-Jun-12 02:29N 34°45' E 134°34'0 0.0
2018-Jun-12 01:58N 34°45' E 134°34'  
Track history (hours):
 
Tides and Currents Weather Stations Pressure Air Temp Water Temp Dewpoint Dewpoint Depression Visibility Wind Speed Wind Dir Waves Ship Positions

Yuho Maru No.12

Last reported at 2018-Jun-21 06:26 UTC. Time now 2018-Jun-21 06:48 UTC.
Position N 34°44' E 134°32'.

Length 65 m; draft 4.4 m.

Type: Tanker. MMSI: 431009043.

Date/timePositionNaut miles runAvg speedWind from/ knotsBaromVisibWave heightAir tempDewpointWater temp
2018-Jun-21 06:26N 34°44' E 134°32'4 0.2
2018-Jun-20 10:47N 34°44' E 134°37'411.4
2018-Jun-20 10:24N 34°42' E 134°42'511.9
2018-Jun-20 10:00N 34°40' E 134°47'611.2
2018-Jun-20 09:30N 34°38' E 134°53'711.2
2018-Jun-20 08:54N 34°37' E 135°01'410.8
2018-Jun-20 08:30N 34°36' E 135°06'612.1
2018-Jun-20 08:00N 34°37' E 135°13'4 8.8
2018-Jun-20 07:30N 34°41' E 135°15'1 2.4
2018-Jun-20 06:56N 34°42' E 135°16'0 0.0
2018-Jun-20 06:26N 34°42' E 135°16'1 1.2
2018-Jun-20 06:00N 34°42' E 135°15'3 5.5
2018-Jun-20 05:30N 34°39' E 135°16'3 5.5
2018-Jun-20 05:00N 34°38' E 135°19'3 6.5
2018-Jun-20 04:30N 34°40' E 135°23'2 4.2
2018-Jun-20 04:00N 34°40' E 135°25'0 0.0
2018-Jun-20 03:29N 34°40' E 135°25'0 0.0
2018-Jun-20 03:01N 34°40' E 135°25'0 0.0
2018-Jun-20 02:30N 34°40' E 135°25'0 0.0
2018-Jun-20 02:00N 34°40' E 135°25'0 0.0
2018-Jun-20 01:26N 34°40' E 135°25'0 0.0
2018-Jun-20 01:01N 34°40' E 135°25'1 1.3
2018-Jun-20 00:31N 34°40' E 135°25'5 9.6
2018-Jun-20 00:00N 34°38' E 135°19'611.5
2018-Jun-19 23:30N 34°35' E 135°13'612.1
2018-Jun-19 23:00N 34°34' E 135°06'713.1
2018-Jun-19 22:28N 34°36' E 134°58'713.8
2018-Jun-19 22:00N 34°33' E 134°51'812.3
2018-Jun-19 21:21N 34°30' E 134°42'412.0
2018-Jun-19 21:00N 34°29' E 134°37'  
2018-Jun-15 05:09N 34°42' E 134°29'210.9
2018-Jun-15 04:56N 34°43' E 134°31'0 0.0
2018-Jun-13 03:10N 34°43' E 134°31'311.5
2018-Jun-13 02:55N 34°44' E 134°34'0 0.1
2018-Jun-12 22:34N 34°45' E 134°34'0 0.9
2018-Jun-12 22:30N 34°45' E 134°34'0 0.1
2018-Jun-12 21:59N 34°45' E 134°34'0 0.0
2018-Jun-12 21:29N 34°45' E 134°34'0 0.0
2018-Jun-12 20:59N 34°45' E 134°34'0 0.0
2018-Jun-12 20:20N 34°45' E 134°34'0 0.0
2018-Jun-12 19:59N 34°45' E 134°34'0 0.0
2018-Jun-12 19:29N 34°45' E 134°34'0 0.0
2018-Jun-12 18:56N 34°45' E 134°34'0 0.0
2018-Jun-12 18:14N 34°45' E 134°34'0 0.0
2018-Jun-12 17:56N 34°45' E 134°34'0 0.0
2018-Jun-12 14:44N 34°45' E 134°34'0 0.0
2018-Jun-12 08:17N 34°45' E 134°34'0 0.0
2018-Jun-12 07:59N 34°45' E 134°34'0 0.0
2018-Jun-12 07:29N 34°45' E 134°34'0 0.0
2018-Jun-12 06:53N 34°45' E 134°34'0 0.0
2018-Jun-12 06:29N 34°45' E 134°34'0 0.0
2018-Jun-12 05:59N 34°45' E 134°34'0 0.0
2018-Jun-12 05:29N 34°45' E 134°34'0 0.0
2018-Jun-12 04:59N 34°45' E 134°34'0 0.0
2018-Jun-12 04:14N 34°45' E 134°34'0 0.0
2018-Jun-12 03:59N 34°45' E 134°34'0 0.0
2018-Jun-12 03:29N 34°45' E 134°34'0 0.0
2018-Jun-12 02:59N 34°45' E 134°34'0 0.0
2018-Jun-12 02:29N 34°45' E 134°34'0 0.0
2018-Jun-12 01:58N 34°45' E 134°34'  

Dump ship's entire track history